Time;durP1;ratioP1;P1;durP2;ratioP2;P2;SDS_P1;SDS_P2;PMS_P1;PMS_P2;Temp;Humidity;BMP_temperature;BMP_pressure;BME280_temperature;BME280_humidity;BME280_pressure;Samples;Min_cycle;Max_cycle;Signal;HPM_P1;HPM_P2
2022/09/12 00:01:11;;;;;;;8.88;8.00;;;14.20;99.90;;;;;;5005043;28;20121;-80
2022/09/12 00:03:37;;;;;;;8.07;7.38;;;14.10;99.90;;;;;;5003061;28;20630;-80
2022/09/12 00:06:20;;;;;;;8.23;7.35;;;14.20;99.90;;;;;;5005148;28;20041;-79
2022/09/12 00:08:45;;;;;;;7.57;6.88;;;14.30;99.90;;;;;;5003853;28;20130;-79
2022/09/12 00:11:12;;;;;;;11.18;10.05;;;14.20;99.90;;;;;;5005107;28;20057;-80
2022/09/12 00:13:39;;;;;;;8.98;8.02;;;14.20;99.90;;;;;;5006267;28;20079;-79
2022/09/12 00:16:05;;;;;;;9.73;8.75;;;14.30;99.90;;;;;;5004058;28;20061;-79
2022/09/12 00:18:31;;;;;;;8.73;7.93;;;14.20;99.90;;;;;;5004137;28;20045;-80
2022/09/12 00:21:03;;;;;;;9.73;8.73;;;14.40;99.90;;;;;;5006367;28;20062;-80
2022/09/12 00:23:28;;;;;;;8.88;7.68;;;14.20;99.90;;;;;;5002958;28;20053;-80
2022/09/12 00:25:54;;;;;;;9.68;8.02;;;14.20;99.90;;;;;;5005062;28;20397;-79
2022/09/12 00:28:20;;;;;;;9.68;7.90;;;14.10;99.90;;;;;;5004375;28;20041;-80
2022/09/12 00:30:47;;;;;;;10.60;9.50;;;14.20;99.90;;;;;;5004925;28;20034;-80
2022/09/12 00:33:15;;;;;;;7.97;7.28;;;14.10;99.90;;;;;;5004495;28;20468;-80
2022/09/12 00:35:48;;;;;;;7.30;6.65;;;13.90;99.90;;;;;;5005222;28;20485;-78
2022/09/12 00:38:16;;;;;;;7.32;6.72;;;14.00;99.90;;;;;;5001382;28;20057;-79
2022/09/12 00:40:42;;;;;;;6.70;5.85;;;14.10;99.90;;;;;;5002705;28;20050;-80
2022/09/12 00:43:40;;;;;;;6.75;6.20;;;14.10;99.90;;;;;;5004935;28;20057;-80
2022/09/12 00:46:25;;;;;;;9.27;7.28;;;14.20;99.90;;;;;;5007011;28;20038;-80
2022/09/12 00:49:00;;;;;;;11.95;9.02;;;14.10;99.90;;;;;;4999763;28;20046;-81
2022/09/12 00:51:29;;;;;;;9.73;8.60;;;14.20;99.90;;;;;;5004028;28;20052;-79
2022/09/12 00:53:57;;;;;;;10.10;9.10;;;14.30;99.90;;;;;;5000864;28;20042;-80
2022/09/12 00:56:23;;;;;;;7.90;7.20;;;14.20;99.90;;;;;;5002821;28;20140;-82
2022/09/12 00:58:56;;;;;;;12.32;8.38;;;14.30;99.90;;;;;;5006417;28;20119;-81
2022/09/12 01:01:22;;;;;;;9.60;8.68;;;14.30;99.90;;;;;;5003549;28;20079;-81
2022/09/12 01:03:48;;;;;;;13.07;7.60;;;14.30;99.90;;;;;;5004206;28;20045;-82
2022/09/12 01:06:29;;;;;;;6.95;6.35;;;14.00;99.90;;;;;;5005286;28;20049;-83
2022/09/12 01:08:58;;;;;;;7.78;7.00;;;13.90;99.90;;;;;;5001350;28;20033;-80
2022/09/12 01:11:24;;;;;;;8.90;7.20;;;13.60;99.90;;;;;;5004008;28;20397;-80
2022/09/12 01:13:50;;;;;;;7.95;7.25;;;13.50;99.90;;;;;;5004942;28;20060;-81
2022/09/12 01:16:15;;;;;;;8.45;6.72;;;13.50;99.90;;;;;;5004278;28;20038;-79
2022/09/12 01:19:05;;;;;;;9.75;7.20;;;13.80;99.90;;;;;;5004380;28;20404;-79
2022/09/12 01:22:05;;;;;;;8.30;7.60;;;13.60;99.90;;;;;;5003017;28;20041;-80
2022/09/12 01:24:45;;;;;;;;;;;13.90;99.90;;;;;;4944607;28;20062;-81
2022/09/12 01:27:14;;;;;;;7.80;7.00;;;13.80;99.90;;;;;;5004512;28;19925;-80
2022/09/12 01:29:58;;;;;;;10.15;9.02;;;13.90;99.90;;;;;;4987528;28;20049;-80
2022/09/12 01:32:45;;;;;;;12.05;10.00;;;13.90;99.90;;;;;;5000541;28;20100;-79
2022/09/12 01:35:24;;;;;;;10.90;9.82;;;13.80;99.90;;;;;;5003891;28;20153;-78
2022/09/12 01:38:19;;;;;;;10.77;9.70;;;13.80;99.90;;;;;;4993689;28;20148;-80
2022/09/12 01:41:06;;;;;;;12.30;9.23;;;13.80;99.90;;;;;;5000194;28;20379;-81
2022/09/12 01:43:36;;;;;;;13.00;9.48;;;13.80;99.90;;;;;;5005104;28;20049;-80
2022/09/12 01:46:22;;;;;;;10.25;9.25;;;13.80;99.90;;;;;;5013975;22;20049;-79
2022/09/12 01:49:10;;;;;;;14.30;10.02;;;13.80;99.90;;;;;;4997763;28;20057;-80
2022/09/12 01:52:05;;;;;;;12.88;10.68;;;13.80;99.90;;;;;;5000467;28;20400;-80
2022/09/12 01:54:46;;;;;;;10.90;9.05;;;13.80;99.90;;;;;;4998125;28;20054;-79
2022/09/12 01:57:51;;;;;;;11.07;9.98;;;13.70;99.90;;;;;;4998535;28;20034;-81
2022/09/12 02:00:18;;;;;;;11.55;10.48;;;13.90;99.90;;;;;;4949769;28;20472;-80
2022/09/12 02:03:01;;;;;;;12.00;10.13;;;13.70;99.90;;;;;;4995633;28;20061;-80
2022/09/12 02:05:52;;;;;;;10.43;9.32;;;13.70;99.90;;;;;;5002912;28;20052;-80
2022/09/12 02:08:28;;;;;;;11.73;10.57;;;13.60;99.90;;;;;;5002891;28;20080;-79
2022/09/12 02:10:58;;;;;;;15.23;11.82;;;13.80;99.90;;;;;;5004959;28;20081;-80
2022/09/12 02:13:31;;;;;;;11.38;10.25;;;13.60;99.90;;;;;;4992802;28;20042;-80
2022/09/12 02:16:15;;;;;;;12.23;10.90;;;13.60;99.90;;;;;;5003049;28;20448;-80
2022/09/12 02:18:49;;;;;;;12.85;11.43;;;13.60;99.90;;;;;;5003164;28;20050;-79
2022/09/12 02:21:17;;;;;;;15.50;11.65;;;13.60;99.90;;;;;;5001072;28;20034;-80
2022/09/12 02:23:49;;;;;;;13.07;11.68;;;13.80;99.90;;;;;;5004056;28;20037;-79
2022/09/12 02:26:23;;;;;;;13.40;11.70;;;13.80;99.90;;;;;;5002666;28;20057;-80
2022/09/12 02:28:49;;;;;;;13.43;10.95;;;13.60;99.90;;;;;;5003669;28;20096;-80
2022/09/12 02:31:23;;;;;;;13.73;12.30;;;13.70;99.90;;;;;;5004250;28;20049;-80
2022/09/12 02:34:03;;;;;;;20.58;15.43;;;13.70;99.90;;;;;;5007445;28;20066;-80
2022/09/12 02:36:50;;;;;;;;;;;13.80;99.90;;;;;;5006866;28;20044;-80
2022/09/12 02:39:20;;;;;;;17.02;12.02;;;13.70;99.90;;;;;;5006163;28;19968;-78
2022/09/12 02:41:57;;;;;;;15.20;13.17;;;13.60;99.90;;;;;;5005878;28;20105;-77
2022/09/12 02:44:25;;;;;;;14.35;13.05;;;13.70;99.90;;;;;;5005590;28;20117;-80
2022/09/12 02:47:21;;;;;;;14.93;13.50;;;13.70;99.90;;;;;;5020311;28;20062;-80
2022/09/12 02:49:47;;;;;;;17.08;14.30;;;13.50;99.90;;;;;;4995158;28;20503;-81
2022/09/12 02:52:13;;;;;;;14.32;12.93;;;13.50;99.90;;;;;;5007630;28;20050;-80
2022/09/12 02:54:39;;;;;;;15.43;13.32;;;13.60;99.90;;;;;;5005891;28;20093;-80
2022/09/12 02:57:18;;;;;;;15.70;12.77;;;13.60;99.90;;;;;;5006274;28;20064;-80
2022/09/12 02:59:44;;;;;;;15.05;13.60;;;13.50;99.90;;;;;;5005318;28;20042;-80
2022/09/12 03:02:16;;;;;;;15.18;13.60;;;13.60;99.90;;;;;;4989197;28;20049;-81
2022/09/12 03:04:57;;;;;;;15.77;14.23;;;13.60;99.90;;;;;;5005843;28;20054;-78
2022/09/12 03:08:10;;;;;;;16.38;14.73;;;13.70;99.90;;;;;;5007156;28;20038;-79
2022/09/12 03:10:51;;;;;;;18.67;15.18;;;13.70;99.90;;;;;;4987062;28;20064;-79
2022/09/12 03:13:24;;;;;;;15.65;13.95;;;13.60;99.90;;;;;;5021098;28;20520;-79
2022/09/12 03:16:05;;;;;;;18.63;15.93;;;13.60;99.90;;;;;;5004477;28;20602;-79
2022/09/12 03:18:54;;;;;;;18.95;14.88;;;13.60;99.90;;;;;;5002656;28;20049;-80
2022/09/12 03:21:43;;;;;;;18.25;14.15;;;13.40;99.90;;;;;;4999501;28;20041;-81
2022/09/12 03:24:32;;;;;;;18.35;16.38;;;13.30;99.90;;;;;;5007946;28;20056;-79
2022/09/12 03:27:12;;;;;;;26.45;16.85;;;13.40;99.90;;;;;;5005262;28;20591;-78
2022/09/12 03:29:39;;;;;;;18.58;16.70;;;13.40;99.90;;;;;;5007250;28;20739;-80
2022/09/12 03:32:06;;;;;;;19.83;15.88;;;13.20;99.90;;;;;;5004392;28;20046;-79
2022/09/12 03:34:32;;;;;;;17.00;15.20;;;13.30;99.90;;;;;;5004693;28;20050;-80
2022/09/12 03:36:58;;;;;;;21.08;16.67;;;13.40;99.90;;;;;;5000531;28;20084;-80
2022/09/12 03:39:25;;;;;;;18.17;16.35;;;13.30;99.90;;;;;;5002064;28;20041;-80
2022/09/12 03:41:52;;;;;;;18.42;16.50;;;13.20;99.90;;;;;;5004645;28;20468;-80
2022/09/12 03:44:17;;;;;;;23.48;18.67;;;13.20;99.90;;;;;;5006376;28;20129;-79
2022/09/12 03:46:43;;;;;;;20.40;18.13;;;13.10;99.90;;;;;;5003517;28;20209;-79
2022/09/12 03:49:09;;;;;;;22.08;17.92;;;13.20;99.90;;;;;;5000136;28;20038;-79
2022/09/12 03:51:36;;;;;;;22.55;17.55;;;13.30;99.90;;;;;;5003127;28;20137;-80
2022/09/12 03:54:02;;;;;;;23.42;20.23;;;13.20;99.90;;;;;;5004702;28;20053;-79
2022/09/12 03:56:28;;;;;;;26.55;20.15;;;13.30;99.90;;;;;;5003670;28;20377;-79
2022/09/12 03:58:53;;;;;;;24.25;20.27;;;13.10;99.90;;;;;;5005890;28;20112;-78
2022/09/12 04:01:19;;;;;;;24.02;19.90;;;13.20;99.90;;;;;;5005766;28;20038;-79
2022/09/12 04:03:50;;;;;;;26.00;20.02;;;13.20;99.90;;;;;;5005384;28;20385;-79
2022/09/12 04:06:19;;;;;;;24.63;21.08;;;13.10;99.90;;;;;;5002109;28;20068;-79
2022/09/12 04:08:49;;;;;;;24.45;20.67;;;13.20;99.90;;;;;;5006078;28;20042;-80
2022/09/12 04:11:15;;;;;;;25.75;20.38;;;13.30;99.90;;;;;;5004563;28;20077;-79
2022/09/12 04:13:42;;;;;;;22.67;19.30;;;13.30;99.90;;;;;;5006695;28;20041;-80
2022/09/12 04:16:09;;;;;;;23.77;20.60;;;13.20;99.90;;;;;;5002921;28;20448;-80
2022/09/12 04:18:36;;;;;;;24.05;21.58;;;13.10;99.90;;;;;;5006319;28;20108;-79
2022/09/12 04:21:13;;;;;;;26.88;20.88;;;13.10;99.90;;;;;;5006020;28;20038;-81
2022/09/12 04:23:39;;;;;;;24.13;19.25;;;13.30;99.90;;;;;;5005388;28;20656;-80
2022/09/12 04:26:05;;;;;;;23.55;20.90;;;13.30;99.90;;;;;;5007051;28;20049;-80
2022/09/12 04:28:32;;;;;;;27.38;22.88;;;13.30;99.90;;;;;;5020647;28;20068;-80
2022/09/12 04:31:07;;;;;;;24.70;20.60;;;13.30;99.90;;;;;;5004880;28;20420;-80
2022/09/12 04:33:34;;;;;;;23.70;20.67;;;13.40;99.90;;;;;;5003001;28;20041;-80
2022/09/12 04:36:06;;;;;;;23.33;20.75;;;13.20;99.90;;;;;;5005527;28;20091;-79
2022/09/12 04:38:32;;;;;;;24.75;22.15;;;13.20;99.90;;;;;;5002300;28;20077;-80
2022/09/12 04:40:58;;;;;;;28.52;22.52;;;13.30;99.90;;;;;;5004899;28;20042;-78
2022/09/12 04:43:23;;;;;;;26.30;21.85;;;13.20;99.90;;;;;;5003823;28;20077;-78
2022/09/12 04:45:49;;;;;;;26.13;22.73;;;13.40;99.90;;;;;;5019409;28;20030;-79
2022/09/12 04:48:15;;;;;;;26.00;23.08;;;13.30;99.90;;;;;;5004127;28;20034;-80
2022/09/12 04:50:40;;;;;;;35.78;25.08;;;13.40;99.90;;;;;;5014607;28;20231;-80
2022/09/12 04:53:07;;;;;;;29.13;24.95;;;13.30;99.90;;;;;;5004349;28;20072;-79
2022/09/12 04:55:34;;;;;;;28.45;25.38;;;13.50;99.90;;;;;;5003684;28;20400;-78
2022/09/12 04:58:01;;;;;;;30.92;25.38;;;13.40;99.90;;;;;;5003357;28;20034;-78
2022/09/12 05:00:27;;;;;;;30.50;24.42;;;13.40;99.90;;;;;;5020410;28;20405;-78
2022/09/12 05:02:52;;;;;;;31.20;25.05;;;13.50;99.90;;;;;;5002143;28;20606;-78
2022/09/12 05:05:18;;;;;;;34.47;24.92;;;13.70;99.90;;;;;;5001985;28;20136;-78
2022/09/12 05:07:43;;;;;;;32.40;23.38;;;13.50;99.90;;;;;;5002378;28;20133;-78
2022/09/12 05:10:09;;;;;;;30.63;26.25;;;13.70;99.90;;;;;;5006134;28;20081;-77
2022/09/12 05:12:35;;;;;;;28.27;24.52;;;13.50;99.90;;;;;;5005703;28;20042;-78
2022/09/12 05:15:01;;;;;;;32.33;26.38;;;13.70;99.90;;;;;;5003641;28;20506;-78
2022/09/12 05:17:30;;;;;;;35.20;26.50;;;13.70;99.90;;;;;;4999907;28;20129;-80
2022/09/12 05:19:56;;;;;;;31.42;25.73;;;13.80;99.90;;;;;;5002595;28;20050;-80
2022/09/12 05:22:22;;;;;;;31.63;25.50;;;13.60;99.90;;;;;;5001668;28;20108;-81
2022/09/12 05:24:47;;;;;;;28.83;24.63;;;13.80;99.90;;;;;;5004367;28;20056;-81
2022/09/12 05:27:13;;;;;;;32.67;26.52;;;13.80;99.90;;;;;;5005832;28;20502;-81
2022/09/12 05:29:39;;;;;;;33.25;26.17;;;13.90;99.90;;;;;;5006301;28;20046;-81
2022/09/12 05:32:05;;;;;;;30.73;27.42;;;13.90;99.90;;;;;;5003039;28;20397;-79
2022/09/12 05:34:31;;;;;;;32.20;24.92;;;13.70;99.90;;;;;;5001545;28;20056;-81
2022/09/12 05:36:57;;;;;;;30.73;25.92;;;13.90;99.90;;;;;;5004966;28;20050;-80
2022/09/12 05:39:23;;;;;;;39.72;28.17;;;13.90;99.90;;;;;;5004105;28;20065;-82
2022/09/12 05:41:49;;;;;;;32.40;25.65;;;14.00;99.90;;;;;;5005556;28;20042;-81
2022/09/12 05:44:14;;;;;;;54.58;30.67;;;13.90;99.90;;;;;;5004361;28;20042;-81
2022/09/12 05:46:42;;;;;;;31.38;25.67;;;13.80;99.90;;;;;;5005616;28;20156;-80
2022/09/12 05:49:10;;;;;;;35.40;25.25;;;14.00;99.90;;;;;;4985777;28;20049;-76
2022/09/12 05:51:38;;;;;;;31.92;26.73;;;14.00;99.90;;;;;;5019657;28;20135;-82
2022/09/12 05:54:06;;;;;;;34.92;27.60;;;14.10;99.90;;;;;;5002934;28;20044;-82
2022/09/12 05:56:36;;;;;;;31.85;26.35;;;14.00;99.90;;;;;;5004628;28;20131;-80
2022/09/12 05:59:04;;;;;;;31.38;26.27;;;14.00;99.90;;;;;;5003282;28;20038;-80
2022/09/12 06:01:32;;;;;;;36.17;26.90;;;14.10;99.90;;;;;;4985735;28;20073;-82
2022/09/12 06:04:00;;;;;;;32.92;26.50;;;14.10;99.90;;;;;;5004104;28;20042;-82
2022/09/12 06:06:27;;;;;;;36.85;29.08;;;14.00;99.90;;;;;;5008701;28;20034;-82
2022/09/12 06:08:56;;;;;;;43.42;28.73;;;14.10;99.90;;;;;;5006078;28;20050;-82
2022/09/12 06:11:24;;;;;;;40.57;30.43;;;14.00;99.90;;;;;;5008045;28;20049;-82
2022/09/12 06:13:51;;;;;;;39.35;29.52;;;13.90;99.90;;;;;;5006808;28;20124;-83
2022/09/12 06:16:22;;;;;;;40.08;32.47;;;14.00;99.90;;;;;;5005533;28;20041;-82
2022/09/12 06:18:53;;;;;;;39.25;31.30;;;14.10;99.90;;;;;;5008033;28;20061;-81
2022/09/12 06:21:19;;;;;;;39.88;30.30;;;14.00;99.90;;;;;;5006625;28;20052;-83
2022/09/12 06:23:46;;;;;;;36.17;30.15;;;14.10;99.90;;;;;;5006633;28;20077;-82
2022/09/12 06:26:13;;;;;;;38.58;30.40;;;14.10;99.90;;;;;;5008048;28;20037;-83
2022/09/12 06:28:40;;;;;;;41.60;32.33;;;14.20;99.90;;;;;;5008635;28;20038;-82
2022/09/12 06:31:11;;;;;;;41.33;33.45;;;14.40;99.90;;;;;;5006817;28;20042;-82
2022/09/12 06:33:43;;;;;;;38.67;30.38;;;14.30;99.90;;;;;;5006729;28;20048;-82
2022/09/12 06:36:12;;;;;;;39.67;30.95;;;14.40;99.90;;;;;;5001290;28;20092;-79
2022/09/12 06:38:38;;;;;;;39.58;30.55;;;14.30;99.90;;;;;;5007188;28;20443;-81
2022/09/12 06:41:06;;;;;;;42.17;32.13;;;14.20;99.90;;;;;;5007075;28;20092;-80
2022/09/12 06:43:32;;;;;;;45.42;33.22;;;14.20;99.90;;;;;;5004679;28;20505;-81
2022/09/12 06:45:58;;;;;;;42.22;32.53;;;14.40;99.90;;;;;;5007294;28;20535;-81
2022/09/12 06:48:24;;;;;;;46.85;32.00;;;14.30;99.90;;;;;;5007575;28;20060;-81
2022/09/12 06:51:03;;;;;;;40.88;31.08;;;14.50;99.90;;;;;;5007034;28;20074;-81
2022/09/12 06:53:32;;;;;;;48.90;34.50;;;14.40;99.90;;;;;;5005109;28;20126;-80
2022/09/12 06:56:03;;;;;;;47.60;33.38;;;14.70;99.90;;;;;;5005528;28;20580;-80
2022/09/12 06:58:30;;;;;;;47.85;34.33;;;14.60;99.90;;;;;;5003640;28;20625;-81
2022/09/12 07:01:11;;;;;;;52.20;38.05;;;14.90;99.90;;;;;;5006638;28;20045;-80
2022/09/12 07:03:37;;;;;;;54.28;36.28;;;14.90;99.90;;;;;;5000615;28;20046;-81
2022/09/12 07:06:08;;;;;;;47.42;36.47;;;14.90;99.90;;;;;;5006099;28;20076;-80
2022/09/12 07:08:36;;;;;;;52.20;37.00;;;14.90;99.90;;;;;;5008311;28;20049;-82
2022/09/12 07:11:30;;;;;;;54.35;36.15;;;15.00;99.90;;;;;;5007235;28;20487;-81
2022/09/12 07:13:58;;;;;;;54.75;37.65;;;15.10;99.90;;;;;;5001203;28;20114;-80
2022/09/12 07:16:24;;;;;;;51.53;41.83;;;14.90;99.90;;;;;;5004450;28;20049;-81
2022/09/12 07:18:55;;;;;;;58.70;39.55;;;15.00;99.90;;;;;;5008190;28;20048;-81
2022/09/12 07:21:21;;;;;;;59.67;41.08;;;15.10;99.90;;;;;;5006959;28;20081;-79
2022/09/12 07:23:48;;;;;;;55.05;38.10;;;15.20;99.90;;;;;;5004171;28;20116;-82
2022/09/12 07:26:15;;;;;;;60.03;40.28;;;15.20;99.90;;;;;;5007207;28;20081;-84
2022/09/12 07:28:41;;;;;;;58.35;42.35;;;15.30;99.90;;;;;;5007578;28;20096;-83
2022/09/12 07:31:09;;;;;;;60.03;41.33;;;15.30;99.90;;;;;;5005365;28;20046;-83
2022/09/12 07:33:37;;;;;;;58.33;41.25;;;15.30;99.90;;;;;;4994493;28;20038;-84
2022/09/12 07:36:10;;;;;;;58.35;42.08;;;15.40;99.90;;;;;;5007233;28;20117;-81
2022/09/12 07:38:36;;;;;;;57.20;42.92;;;15.50;99.90;;;;;;5006102;28;20053;-83
2022/09/12 07:41:13;;;;;;;58.55;40.65;;;15.30;99.90;;;;;;5008176;28;20057;-83
2022/09/12 07:43:39;;;;;;;57.47;40.75;;;15.50;99.90;;;;;;5004183;28;20110;-83
2022/09/12 07:46:05;;;;;;;58.90;41.13;;;15.70;99.90;;;;;;5006684;28;20483;-87
2022/09/12 07:48:31;;;;;;;56.80;38.83;;;15.60;99.90;;;;;;5006499;28;20455;-85
2022/09/12 07:51:02;;;;;;;55.20;38.78;;;15.60;99.90;;;;;;5007247;28;20054;-84
2022/09/12 07:53:33;;;;;;;56.75;41.35;;;15.80;99.90;;;;;;5008788;28;20042;-84
2022/09/12 07:55:59;;;;;;;53.88;37.35;;;15.60;99.90;;;;;;5006075;28;20419;-87
2022/09/12 07:58:25;;;;;;;55.95;40.78;;;15.70;99.90;;;;;;5010204;28;20056;-83
2022/09/12 08:00:51;;;;;;;55.65;39.72;;;15.90;99.90;;;;;;5006561;28;20084;-85
2022/09/12 08:03:17;;;;;;;47.92;37.47;;;15.90;99.90;;;;;;5008491;28;20617;-82
2022/09/12 08:05:43;;;;;;;57.40;43.17;;;15.70;99.90;;;;;;5005880;28;20127;-85
2022/09/12 08:08:09;;;;;;;53.10;39.47;;;15.80;99.90;;;;;;5007434;28;20069;-84
2022/09/12 08:10:35;;;;;;;58.22;40.33;;;15.80;99.90;;;;;;5006448;28;20046;-84
2022/09/12 08:13:02;;;;;;;55.03;39.42;;;16.00;99.90;;;;;;5007560;28;20443;-83
2022/09/12 08:15:30;;;;;;;57.95;38.40;;;15.90;99.90;;;;;;5022731;28;20047;-84
2022/09/12 08:17:55;;;;;;;58.90;41.15;;;16.00;99.90;;;;;;5007312;28;20437;-83
2022/09/12 08:20:21;;;;;;;52.60;40.83;;;16.00;99.90;;;;;;5006084;28;20050;-83
2022/09/12 08:22:46;;;;;;;53.80;41.50;;;16.30;99.90;;;;;;5006832;28;20051;-84
2022/09/12 08:25:12;;;;;;;56.80;39.80;;;16.30;99.90;;;;;;5007030;28;20099;-84
2022/09/12 08:27:38;;;;;;;57.42;42.15;;;16.40;99.90;;;;;;5005163;28;20046;-84
2022/09/12 08:30:05;;;;;;;59.22;42.15;;;16.70;99.90;;;;;;5007288;28;20103;-77
2022/09/12 08:32:31;;;;;;;53.45;39.75;;;16.90;99.90;;;;;;5004993;28;20421;-81
2022/09/12 08:34:57;;;;;;;54.67;40.50;;;16.80;99.90;;;;;;5004365;28;20420;-78
2022/09/12 08:37:22;;;;;;;58.60;39.83;;;16.60;99.90;;;;;;5005175;28;20042;-77
2022/09/12 08:39:48;;;;;;;55.13;41.38;;;16.90;99.90;;;;;;5004074;28;20431;-82
2022/09/12 08:42:45;;;;;;;50.22;41.38;;;17.00;99.90;;;;;;5006329;28;20046;-82
2022/09/12 08:45:24;;;;;;;63.00;41.70;;;17.10;99.90;;;;;;4990288;28;20045;-81
2022/09/12 08:47:50;;;;;;;56.53;41.90;;;17.20;99.90;;;;;;5005497;28;20150;-82
2022/09/12 08:50:19;;;;;;;60.35;44.65;;;17.30;99.90;;;;;;5004826;28;20464;-76
2022/09/12 08:52:45;;;;;;;61.35;44.78;;;17.30;99.90;;;;;;5004015;28;20042;-82
2022/09/12 08:55:52;;;;;;;56.97;44.47;;;17.50;99.90;;;;;;5002856;28;20092;-81
2022/09/12 08:58:23;;;;;;;54.78;41.40;;;17.60;99.90;;;;;;4986862;28;20064;-81
2022/09/12 09:00:58;;;;;;;59.03;42.40;;;17.60;99.90;;;;;;5005069;28;20042;-82
2022/09/12 09:04:06;;;;;;;59.30;44.20;;;17.50;99.90;;;;;;5004280;28;20420;-84
2022/09/12 09:06:50;;;;;;;61.58;41.55;;;17.70;99.90;;;;;;5004055;28;20041;-81
2022/09/12 09:09:48;;;;;;;59.78;41.53;;;17.70;99.90;;;;;;5004653;28;20053;-84
2022/09/12 09:12:20;;;;;;;59.50;40.20;;;18.10;99.90;;;;;;5004556;28;20517;-80
2022/09/12 09:15:08;;;;;;;59.58;41.83;;;18.00;99.90;;;;;;5005758;28;20045;-82
2022/09/12 09:17:45;;;;;;;55.75;40.47;;;18.30;99.90;;;;;;5004399;28;20049;-82
2022/09/12 09:20:35;;;;;;;58.15;39.83;;;18.40;99.90;;;;;;5005236;28;20141;-84
2022/09/12 09:23:09;;;;;;;60.45;43.47;;;18.40;99.90;;;;;;5003119;28;20153;-81
2022/09/12 09:25:54;;;;;;;58.53;40.47;;;18.50;99.90;;;;;;5003265;28;20129;-82
2022/09/12 09:28:28;;;;;;;64.15;40.67;;;18.50;99.90;;;;;;5003944;28;20125;-78
2022/09/12 09:30:54;;;;;;;59.08;40.30;;;18.50;99.90;;;;;;5001760;28;20125;-78
2022/09/12 09:33:26;;;;;;;54.78;38.97;;;18.50;99.90;;;;;;5004237;28;20571;-79
2022/09/12 09:36:18;;;;;;;54.78;39.10;;;18.70;99.90;;;;;;5002259;28;20049;-78
2022/09/12 09:38:47;;;;;;;53.05;37.45;;;18.70;99.90;;;;;;4996711;28;20065;-79
2022/09/12 09:41:30;;;;;;;55.35;38.05;;;18.70;99.90;;;;;;5004071;28;20042;-78
2022/09/12 09:43:56;;;;;;;59.70;39.45;;;18.90;99.90;;;;;;5003138;28;20048;-77
2022/09/12 09:46:23;;;;;;;58.38;40.72;;;19.10;99.90;;;;;;5001792;28;20053;-78
2022/09/12 09:48:49;;;;;;;57.85;38.67;;;19.20;99.90;;;;;;5005593;28;20408;-81
2022/09/12 09:51:26;;;;;;;53.15;37.35;;;19.20;99.90;;;;;;5009577;28;20465;-80
2022/09/12 09:54:04;;;;;;;46.60;31.40;;;19.20;99.90;;;;;;5005641;28;20164;-80
2022/09/12 09:56:36;;;;;;;44.00;31.02;;;19.40;99.90;;;;;;5011961;28;20137;-81
2022/09/12 09:59:28;;;;;;;43.15;30.55;;;19.40;99.90;;;;;;5009947;28;20084;-80
2022/09/12 10:02:02;;;;;;;46.30;31.13;;;19.50;99.90;;;;;;5003209;28;20089;-81
2022/09/12 10:04:34;;;;;;;43.03;28.65;;;19.70;99.90;;;;;;5007113;28;20049;-81
2022/09/12 10:07:02;;;;;;;45.60;29.08;;;19.80;99.90;;;;;;5004623;28;20041;-83
2022/09/12 10:09:31;;;;;;;43.08;28.83;;;19.90;99.90;;;;;;5004392;28;20049;-82
2022/09/12 10:11:58;;;;;;;33.80;24.50;;;20.10;99.90;;;;;;5003469;28;20050;-78
2022/09/12 10:14:40;;;;;;;38.10;24.77;;;20.20;99.90;;;;;;5003673;28;20094;-81
2022/09/12 10:17:27;;;;;;;36.25;24.85;;;20.30;99.90;;;;;;5000809;28;20042;-80
2022/09/12 10:19:54;;;;;;;38.25;26.10;;;20.40;99.90;;;;;;5004722;28;20152;-81
2022/09/12 10:22:27;;;;;;;32.78;22.00;;;20.40;99.90;;;;;;5003615;28;20038;-83
2022/09/12 10:24:58;;;;;;;35.65;22.65;;;20.40;99.90;;;;;;5007678;28;20038;-83
2022/09/12 10:27:32;;;;;;;33.60;22.10;;;20.60;99.90;;;;;;4992495;28;20050;-81
2022/09/12 10:30:04;;;;;;;33.35;23.27;;;20.80;99.90;;;;;;5005717;28;20037;-82
2022/09/12 10:32:38;;;;;;;32.33;22.52;;;20.80;99.90;;;;;;5001772;28;20046;-83
2022/09/12 10:35:20;;;;;;;30.45;21.67;;;20.70;99.90;;;;;;4995382;28;20038;-81
2022/09/12 10:37:57;;;;;;;28.83;20.27;;;20.80;99.90;;;;;;5003770;28;20152;-81
2022/09/12 10:40:31;;;;;;;28.95;20.15;;;20.90;99.90;;;;;;5002863;28;20045;-79
2022/09/12 10:43:01;;;;;;;27.98;20.45;;;20.80;99.90;;;;;;4998832;28;20050;-78
2022/09/12 10:45:36;;;;;;;29.90;19.77;;;20.90;99.90;;;;;;5004510;28;20400;-80
2022/09/12 10:48:24;;;;;;;33.65;23.80;;;21.00;99.90;;;;;;5004141;28;20163;-80
2022/09/12 10:50:50;;;;;;;24.50;18.52;;;21.10;99.90;;;;;;5007630;28;20050;-80
2022/09/12 10:53:25;;;;;;;25.60;19.13;;;21.20;99.90;;;;;;5006171;28;20069;-80
2022/09/12 10:56:04;;;;;;;25.33;19.38;;;21.30;99.90;;;;;;5008484;28;20050;-78
2022/09/12 10:58:48;;;;;;;28.65;17.35;;;21.10;99.90;;;;;;5006713;28;20057;-79
2022/09/12 11:01:17;;;;;;;21.83;15.15;;;21.30;99.90;;;;;;4990654;28;20105;-79
2022/09/12 11:04:01;;;;;;;18.83;13.27;;;21.20;99.90;;;;;;5007769;28;20527;-81
2022/09/12 11:06:59;;;;;;;18.65;13.07;;;21.40;99.90;;;;;;5008099;28;20049;-80
2022/09/12 11:09:54;;;;;;;17.50;14.75;;;21.50;99.90;;;;;;4985120;28;20432;-80
2022/09/12 11:12:58;;;;;;;18.30;11.95;;;21.50;99.90;;;;;;5008132;28;20060;-80
2022/09/12 11:15:27;;;;;;;18.88;12.38;;;21.70;99.90;;;;;;4975489;28;20132;-80
2022/09/12 11:17:59;;;;;;;21.67;13.60;;;21.50;99.90;;;;;;4998005;28;20467;-82
2022/09/12 11:20:49;;;;;;;14.10;9.30;;;21.40;99.90;;;;;;5008327;28;20038;-80
2022/09/12 11:23:36;;;;;;;15.07;9.65;;;21.50;99.90;;;;;;5009028;28;20050;-81
2022/09/12 11:26:23;;;;;;;16.05;11.43;;;21.50;99.90;;;;;;4999492;28;20042;-79
2022/09/12 11:29:30;;;;;;;12.80;10.60;;;21.60;99.90;;;;;;5007298;28;20038;-79
2022/09/12 11:31:55;;;;;;;15.93;11.63;;;21.70;99.90;;;;;;4988328;28;20054;-80
2022/09/12 11:34:54;;;;;;;14.18;11.48;;;21.80;99.90;;;;;;5006404;28;20392;-75
2022/09/12 11:37:20;;;;;;;17.83;9.50;;;21.80;99.90;;;;;;5002524;28;20042;-80
2022/09/12 11:39:51;;;;;;;17.75;12.88;;;21.80;99.90;;;;;;5008308;28;20104;-81
2022/09/12 11:42:22;;;;;;;13.70;10.30;;;21.90;99.90;;;;;;5004289;28;20081;-79
2022/09/12 11:45:16;;;;;;;14.30;11.00;;;22.10;99.90;;;;;;5009394;28;20046;-79
2022/09/12 11:47:48;;;;;;;15.52;10.07;;;22.30;99.90;;;;;;4991559;28;20042;-81
2022/09/12 11:50:40;;;;;;;16.30;12.35;;;22.40;99.90;;;;;;5013187;28;20107;-82
2022/09/12 11:53:15;;;;;;;12.05;9.90;;;22.30;99.90;;;;;;4997935;28;20136;-82
2022/09/12 11:56:01;;;;;;;19.15;11.20;;;22.60;99.90;;;;;;5013179;28;20169;-80
2022/09/12 11:58:28;;;;;;;14.68;10.20;;;22.90;99.90;;;;;;5004261;28;20045;-80
2022/09/12 12:01:11;;;;;;;16.80;10.95;;;22.90;99.90;;;;;;5014232;28;20140;-80
2022/09/12 12:03:43;;;;;;;18.83;12.82;;;22.60;99.90;;;;;;5014956;28;20479;-80
2022/09/12 12:06:25;;;;;;;15.68;11.80;;;22.40;99.90;;;;;;5019981;28;20050;-79
2022/09/12 12:08:51;;;;;;;19.27;12.43;;;22.50;99.90;;;;;;5012449;28;20042;-81
2022/09/12 12:11:36;;;;;;;16.17;10.90;;;22.70;99.90;;;;;;5013193;28;20042;-78
2022/09/12 12:14:38;;;;;;;17.25;13.98;;;22.80;99.90;;;;;;5014821;28;20089;-80
2022/09/12 12:17:11;;;;;;;18.80;12.57;;;22.50;99.90;;;;;;5014319;28;20107;-79
2022/09/12 12:19:36;;;;;;;13.75;9.52;;;22.60;99.90;;;;;;5019525;28;20050;-81
2022/09/12 12:22:21;;;;;;;16.83;10.25;;;22.70;99.90;;;;;;5021933;28;20057;-83
2022/09/12 12:25:11;;;;;;;15.35;9.77;;;22.80;99.90;;;;;;5019239;28;20092;-82
2022/09/12 12:27:48;;;;;;;15.15;9.82;;;22.90;99.90;;;;;;5027230;28;20045;-80
2022/09/12 12:30:58;;;;;;;16.77;12.40;;;22.80;99.90;;;;;;5022502;28;20479;-82
2022/09/12 12:33:23;;;;;;;17.83;11.30;;;22.80;99.90;;;;;;5025574;28;20049;-83
2022/09/12 12:35:58;;;;;;;16.67;12.15;;;22.80;99.90;;;;;;5025962;28;20045;-80
2022/09/12 12:38:34;;;;;;;13.82;10.73;;;22.80;99.90;;;;;;5023151;28;20393;-78
2022/09/12 12:41:38;;;;;;;12.35;8.60;;;22.70;99.90;;;;;;5016105;28;20484;-81
2022/09/12 12:44:42;;;;;;;10.75;8.52;;;22.70;99.90;;;;;;5021287;28;20508;-82
2022/09/12 12:47:20;;;;;;;11.25;6.93;;;22.70;99.90;;;;;;4981827;28;20114;-82
2022/09/12 12:49:55;;;;;;;13.63;8.05;;;22.80;99.90;;;;;;4981178;28;20046;-82
2022/09/12 12:52:22;;;;;;;7.18;5.63;;;22.90;99.90;;;;;;4999493;28;20068;-82
2022/09/12 12:54:51;;;;;;;12.90;6.55;;;23.00;99.90;;;;;;5009116;28;20042;-82
2022/09/12 12:57:33;;;;;;;11.68;6.28;;;23.00;99.90;;;;;;5003075;28;20073;-82
2022/09/12 13:00:24;;;;;;;9.70;5.70;;;23.10;99.90;;;;;;5009708;28;20041;-81
2022/09/12 13:02:58;;;;;;;13.85;6.78;;;23.10;99.90;;;;;;5009917;28;20037;-81